createdAt,value
2018-11-21T00:01:37.899Z,-3.11
2018-11-21T00:04:09.335Z,-3.18
2018-11-21T00:06:40.690Z,-3.17
2018-11-21T00:09:12.184Z,-3.18
2018-11-21T00:11:43.663Z,-3.20
2018-11-21T00:14:15.069Z,-3.25
2018-11-21T00:16:46.527Z,-3.23
2018-11-21T00:19:17.966Z,-3.09
2018-11-21T00:21:49.418Z,-3.05
2018-11-21T00:24:20.847Z,-3.13
2018-11-21T00:26:52.448Z,-3.15
2018-11-21T00:29:24.031Z,-3.17
2018-11-21T00:31:55.510Z,-3.24
2018-11-21T00:34:27.084Z,-3.30
2018-11-21T00:36:58.513Z,-3.29
2018-11-21T00:39:30.018Z,-3.27
2018-11-21T00:42:01.569Z,-3.32
2018-11-21T00:44:33.186Z,-3.43
2018-11-21T00:47:04.670Z,-3.48
2018-11-21T00:49:36.213Z,-3.48
2018-11-21T00:52:08.012Z,-3.40
2018-11-21T00:54:39.502Z,-3.34
2018-11-21T00:57:11.181Z,-3.33
2018-11-21T01:00:01.247Z,-3.35
2018-11-21T01:02:32.714Z,-3.36
2018-11-21T01:05:04.140Z,-3.34
2018-11-21T01:07:54.166Z,-3.27
2018-11-21T01:10:25.857Z,-3.16
2018-11-21T01:13:16.474Z,-3.12
2018-11-21T01:15:47.894Z,-3.13
2018-11-21T01:18:19.434Z,-3.08
2018-11-21T01:20:50.848Z,-3.06
2018-11-21T01:23:22.421Z,-3.12
2018-11-21T01:25:53.962Z,-3.23
2018-11-21T01:28:25.524Z,-3.25
2018-11-21T01:30:57.054Z,-3.42
2018-11-21T01:33:28.518Z,-3.46
2018-11-21T01:36:18.625Z,-3.50
2018-11-21T01:38:50.073Z,-3.54
2018-11-21T01:41:21.626Z,-3.58
2018-11-21T01:43:53.026Z,-3.61
2018-11-21T01:46:43.481Z,-3.59
2018-11-21T01:49:14.987Z,-3.62
2018-11-21T01:51:46.576Z,-3.58
2018-11-21T01:54:36.709Z,-3.52
2018-11-21T01:57:08.243Z,-3.47
2018-11-21T01:59:58.604Z,-3.44
2018-11-21T02:02:30.082Z,-3.47
2018-11-21T02:05:01.588Z,-3.58
2018-11-21T02:07:33.032Z,-3.67
2018-11-21T02:10:04.480Z,-3.70
2018-11-21T02:12:36.034Z,-3.73
2018-11-21T02:15:07.617Z,-3.81
2018-11-21T02:17:39.135Z,-3.95
2018-11-21T02:20:29.292Z,-3.94
2018-11-21T02:23:00.855Z,-3.93
2018-11-21T02:25:32.506Z,-3.95
2018-11-21T02:28:04.217Z,-3.87
2018-11-21T02:30:35.672Z,-3.77
2018-11-21T02:33:07.456Z,-3.63
2018-11-21T02:35:57.884Z,-3.50
2018-11-21T02:38:29.363Z,-3.40
2018-11-21T02:41:00.852Z,-3.28
2018-11-21T02:43:50.997Z,-3.26
2018-11-21T02:46:22.472Z,-3.22
2018-11-21T02:48:53.872Z,-3.15
2018-11-21T02:51:25.369Z,-3.07
2018-11-21T02:53:56.804Z,-3.01
2018-11-21T02:57:06.768Z,-2.89
2018-11-21T02:59:38.109Z,-2.84
2018-11-21T03:02:09.442Z,-2.79
2018-11-21T03:04:40.910Z,-2.69
2018-11-21T03:07:12.373Z,-2.60
2018-11-21T03:09:44.068Z,-2.53
2018-11-21T03:12:34.089Z,-2.48
2018-11-21T03:15:05.586Z,-2.36
2018-11-21T03:17:37.031Z,-2.21
2018-11-21T03:20:27.443Z,-2.12
2018-11-21T03:22:58.757Z,-2.00
2018-11-21T03:25:30.230Z,-1.88
2018-11-21T03:28:01.645Z,-1.80
2018-11-21T03:30:33.106Z,-1.73
2018-11-21T03:33:04.655Z,-1.65
2018-11-21T03:35:36.205Z,-1.56
2018-11-21T03:38:07.762Z,-1.43
2018-11-21T03:40:39.357Z,-1.33
2018-11-21T03:43:10.861Z,-1.24
2018-11-21T03:45:42.339Z,-1.13
2018-11-21T03:48:13.921Z,-0.99
2018-11-21T03:50:45.401Z,-0.88
2018-11-21T03:53:16.890Z,-0.69
2018-11-21T03:55:48.422Z,-0.52
2018-11-21T03:58:19.902Z,-0.35
2018-11-21T04:00:51.323Z,-0.22
2018-11-21T04:03:22.910Z,-0.14
2018-11-21T04:05:54.445Z,-0.01
2018-11-21T04:11:42.109Z,0.12
2018-11-21T04:14:13.754Z,0.15
2018-11-21T04:16:45.311Z,0.16
2018-11-21T04:19:16.731Z,0.21
2018-11-21T04:22:07.190Z,0.24
2018-11-21T04:24:38.689Z,0.28
2018-11-21T04:27:10.171Z,0.29
2018-11-21T04:29:41.544Z,0.30
2018-11-21T04:32:13.155Z,0.32
2018-11-21T04:34:44.644Z,0.36
2018-11-21T04:37:16.019Z,0.36
2018-11-21T04:39:47.474Z,0.37
2018-11-21T04:42:18.960Z,0.42
2018-11-21T04:44:50.408Z,0.41
2018-11-21T04:47:22.010Z,0.42
2018-11-21T04:49:53.377Z,0.44
2018-11-21T04:52:24.906Z,0.46
2018-11-21T04:55:16.004Z,0.46
2018-11-21T04:57:47.473Z,0.47
2018-11-21T05:00:18.882Z,0.48
2018-11-21T05:03:08.961Z,0.50
2018-11-21T05:05:40.513Z,0.52
2018-11-21T05:08:11.977Z,0.54
2018-11-21T05:10:43.449Z,0.54
2018-11-21T05:13:14.885Z,0.55
2018-11-21T05:15:49.290Z,0.56
2018-11-21T05:18:31.622Z,0.58
2018-11-21T05:21:03.101Z,0.60
2018-11-21T05:23:34.663Z,0.64
2018-11-21T05:26:06.249Z,0.66
2018-11-21T05:28:56.539Z,0.67
2018-11-21T05:31:27.910Z,0.70
2018-11-21T05:34:17.951Z,0.72
2018-11-21T05:36:49.574Z,0.73
2018-11-21T05:39:21.118Z,0.76
2018-11-21T05:42:11.238Z,0.79
2018-11-21T05:45:01.337Z,0.80
2018-11-21T05:47:32.822Z,0.82
2018-11-21T05:50:04.286Z,0.86
2018-11-21T05:52:35.945Z,0.86
2018-11-21T05:55:07.690Z,0.89
2018-11-21T05:57:39.356Z,0.89
2018-11-21T06:00:13.003Z,0.90
2018-11-21T06:02:44.510Z,0.92
2018-11-21T06:05:15.929Z,0.95
2018-11-21T06:07:47.415Z,0.98
2018-11-21T06:10:18.980Z,0.96
2018-11-21T06:12:50.460Z,0.96
2018-11-21T06:15:21.950Z,0.99
2018-11-21T06:17:53.419Z,1.00
2018-11-21T06:20:43.754Z,1.02
2018-11-21T06:23:15.094Z,1.02
2018-11-21T06:25:46.564Z,1.04
2018-11-21T06:28:18.079Z,1.06
2018-11-21T06:30:49.522Z,1.11
2018-11-21T06:33:20.986Z,1.11
2018-11-21T06:35:52.419Z,1.14
2018-11-21T06:38:42.504Z,1.14
2018-11-21T06:41:13.954Z,1.17
2018-11-21T06:43:45.539Z,1.24
2018-11-21T06:46:16.944Z,1.29
2018-11-21T06:48:48.610Z,1.30
2018-11-21T06:51:20.086Z,1.31
2018-11-21T06:53:51.623Z,1.32
2018-11-21T06:56:23.155Z,1.34
2018-11-21T06:59:13.351Z,1.35
2018-11-21T07:02:03.437Z,1.38
2018-11-21T07:04:35.077Z,1.41
2018-11-21T07:07:06.814Z,1.42
2018-11-21T07:09:38.439Z,1.45
2018-11-21T07:12:09.959Z,1.43
2018-11-21T07:14:41.279Z,1.46
2018-11-21T07:17:12.776Z,1.48
2018-11-21T07:20:02.834Z,1.52
2018-11-21T07:22:34.362Z,1.53
2018-11-21T07:25:25.570Z,1.54
2018-11-21T07:27:57.110Z,1.56
2018-11-21T07:30:47.346Z,1.61
2018-11-21T07:33:18.745Z,1.64
2018-11-21T07:35:50.230Z,1.64
2018-11-21T07:38:21.827Z,1.69
2018-11-21T07:40:53.194Z,1.71
2018-11-21T07:43:24.720Z,1.78
2018-11-21T07:45:56.246Z,1.76
2018-11-21T07:48:27.708Z,1.76
2018-11-21T07:51:02.465Z,1.84
2018-11-21T07:53:57.964Z,1.87
2018-11-21T07:56:54.054Z,1.88
2018-11-21T07:59:25.454Z,1.86
2018-11-21T08:02:15.531Z,1.88
2018-11-21T08:04:51.221Z,1.93
2018-11-21T08:07:37.317Z,1.91
2018-11-21T08:10:27.549Z,1.91
2018-11-21T08:13:17.612Z,1.94
2018-11-21T08:16:07.614Z,2.00
2018-11-21T08:18:57.853Z,2.01
2018-11-21T08:22:06.695Z,2.02
2018-11-21T08:24:56.883Z,2.06
2018-11-21T08:27:39.254Z,2.10
2018-11-21T08:30:29.587Z,2.24
2018-11-21T08:33:19.617Z,2.35
2018-11-21T08:35:51.129Z,2.33
2018-11-21T08:38:22.638Z,2.35
2018-11-21T08:40:54.115Z,2.38
2018-11-21T08:43:25.536Z,2.41
2018-11-21T08:45:56.996Z,2.43
2018-11-21T08:48:28.602Z,2.52
2018-11-21T08:51:00.135Z,2.58
2018-11-21T08:53:31.667Z,2.60
2018-11-21T08:56:03.056Z,2.58
2018-11-21T08:58:34.600Z,2.57
2018-11-21T09:01:06.527Z,2.50
2018-11-21T09:03:38.002Z,2.55
2018-11-21T09:06:28.065Z,2.63
2018-11-21T09:09:18.045Z,2.64
2018-11-21T09:11:49.592Z,2.63
2018-11-21T09:14:21.016Z,2.64
2018-11-21T09:17:11.067Z,2.57
2018-11-21T09:20:01.667Z,2.54
2018-11-21T09:22:33.181Z,2.56
2018-11-21T09:25:05.093Z,2.61
2018-11-21T09:27:55.190Z,2.61
2018-11-21T09:30:26.756Z,2.57
2018-11-21T09:32:58.993Z,2.61
2018-11-21T09:35:32.561Z,2.59
2018-11-21T09:38:04.614Z,2.51
2018-11-21T09:40:35.989Z,2.53
2018-11-21T09:43:07.930Z,2.56
2018-11-21T09:46:19.538Z,2.59
2018-11-21T09:52:22.879Z,2.67
2018-11-21T09:54:54.337Z,2.74
2018-11-21T09:57:25.647Z,2.78
2018-11-21T09:59:56.953Z,2.70
2018-11-21T10:03:06.272Z,2.69
2018-11-21T10:06:17.582Z,2.65
2018-11-21T10:09:46.407Z,2.72
2018-11-21T10:12:57.090Z,2.77
2018-11-21T10:18:46.734Z,2.85
2018-11-21T10:21:39.604Z,2.83
2018-11-21T10:24:49.284Z,2.85
2018-11-21T10:27:22.449Z,2.88
2018-11-21T10:29:55.281Z,2.98
2018-11-21T10:32:47.280Z,2.94
2018-11-21T10:35:37.451Z,2.94
2018-11-21T10:38:08.686Z,3.03
2018-11-21T10:40:40.236Z,3.11
2018-11-21T10:43:11.437Z,3.18
2018-11-21T10:45:44.316Z,3.25
2018-11-21T10:48:15.490Z,3.31
2018-11-21T10:50:46.676Z,3.39
2018-11-21T10:53:17.906Z,3.40
2018-11-21T10:55:49.085Z,3.37
2018-11-21T10:58:20.406Z,3.40
2018-11-21T11:01:10.923Z,3.56
2018-11-21T11:04:01.218Z,3.67
2018-11-21T11:06:48.275Z,3.83
2018-11-21T11:09:38.298Z,3.89
2018-11-21T11:12:28.515Z,4.10
2018-11-21T11:15:28.663Z,4.17
2018-11-21T11:18:18.790Z,4.15
2018-11-21T11:21:09.022Z,4.16
2018-11-21T11:24:18.174Z,3.90
2018-11-21T11:27:05.165Z,3.97
2018-11-21T11:29:46.449Z,4.05
2018-11-21T11:32:36.638Z,4.08
2018-11-21T11:35:27.137Z,4.11
2018-11-21T11:38:17.135Z,4.02
2018-11-21T11:41:07.593Z,4.07
2018-11-21T11:44:00.589Z,4.18
2018-11-21T11:47:09.428Z,4.15
2018-11-21T11:49:59.590Z,4.08
2018-11-21T11:52:47.064Z,3.90
2018-11-21T11:55:37.469Z,3.98
2018-11-21T11:58:27.786Z,4.00
2018-11-21T12:01:15.625Z,3.94
2018-11-21T12:04:05.766Z,3.89
2018-11-21T12:06:55.770Z,3.97
2018-11-21T12:09:45.942Z,3.97
2018-11-21T12:12:40.122Z,3.86
2018-11-21T12:15:27.304Z,3.74
2018-11-21T12:18:17.270Z,3.72
2018-11-21T12:21:26.209Z,3.91
2018-11-21T12:24:16.350Z,4.00
2018-11-21T12:27:12.432Z,3.95
2018-11-21T12:30:02.499Z,3.93
2018-11-21T12:32:52.455Z,3.82
2018-11-21T12:35:42.495Z,3.77
2018-11-21T12:42:19.733Z,3.76
2018-11-21T12:45:09.823Z,3.67
2018-11-21T12:47:59.828Z,3.67
2018-11-21T12:50:52.977Z,3.67
2018-11-21T12:53:43.024Z,3.64
2018-11-21T12:56:33.250Z,3.65
2018-11-21T12:59:23.303Z,3.59
2018-11-21T13:02:13.582Z,3.52
2018-11-21T13:05:03.749Z,3.51
2018-11-21T13:07:53.855Z,3.47
2018-11-21T13:10:44.096Z,3.45
2018-11-21T13:13:53.023Z,3.55
2018-11-21T13:16:43.258Z,3.57
2018-11-21T13:19:33.236Z,3.53
2018-11-21T13:22:42.187Z,3.60
2018-11-21T13:25:32.443Z,3.60
2018-11-21T13:28:22.490Z,3.61
2018-11-21T13:31:12.737Z,3.63
2018-11-21T13:34:03.663Z,3.59
2018-11-21T13:36:53.864Z,3.53
2018-11-21T13:39:43.971Z,3.52
2018-11-21T13:42:34.025Z,3.54
2018-11-21T13:45:24.253Z,3.55
2018-11-21T13:48:14.584Z,3.53
2018-11-21T13:51:04.752Z,3.55
2018-11-21T13:53:54.682Z,3.59
2018-11-21T13:56:26.327Z,3.60
2018-11-21T13:58:57.903Z,3.62
2018-11-21T14:01:29.521Z,3.61
2018-11-21T14:04:01.095Z,3.58
2018-11-21T14:06:51.366Z,3.56
2018-11-21T14:09:23.584Z,3.61
2018-11-21T14:11:55.269Z,3.64
2018-11-21T14:14:26.672Z,3.59
2018-11-21T14:17:00.581Z,3.59
2018-11-21T14:19:32.218Z,3.61
2018-11-21T14:22:03.762Z,3.63
2018-11-21T14:24:35.203Z,3.64
2018-11-21T14:27:06.748Z,3.66
2018-11-21T14:29:38.256Z,3.62
2018-11-21T14:32:09.652Z,3.62
2018-11-21T14:34:41.354Z,3.64
2018-11-21T14:37:13.356Z,3.64
2018-11-21T14:39:45.092Z,3.63
2018-11-21T14:42:16.512Z,3.58
2018-11-21T14:44:48.020Z,3.55
2018-11-21T14:47:38.129Z,3.55
2018-11-21T14:50:14.158Z,3.57
2018-11-21T14:53:04.617Z,3.56
2018-11-21T14:55:55.011Z,3.54
2018-11-21T14:58:26.590Z,3.51
2018-11-21T15:01:16.932Z,3.51
2018-11-21T15:04:26.364Z,3.53
2018-11-21T15:07:16.670Z,3.45
2018-11-21T15:10:07.038Z,3.42
2018-11-21T15:12:57.395Z,3.44
2018-11-21T15:15:47.842Z,3.47
2018-11-21T15:18:19.640Z,3.44
2018-11-21T15:20:51.601Z,3.43
2018-11-21T15:23:22.943Z,3.41
2018-11-21T15:25:54.411Z,3.44
2018-11-21T15:28:25.528Z,3.43
2018-11-21T15:30:57.501Z,3.45
2018-11-21T15:33:47.553Z,3.47
2018-11-21T15:36:19.134Z,3.44
2018-11-21T15:38:50.576Z,3.45
2018-11-21T15:41:22.329Z,3.43
2018-11-21T15:43:54.162Z,3.45
2018-11-21T15:46:25.887Z,3.50
2018-11-21T15:49:16.970Z,3.51
2018-11-21T15:51:48.551Z,3.47
2018-11-21T15:54:20.214Z,3.42
2018-11-21T15:56:51.725Z,3.44
2018-11-21T15:59:23.292Z,3.45
2018-11-21T16:01:55.236Z,3.48
2018-11-21T16:04:26.830Z,3.46
2018-11-21T16:06:58.366Z,3.49
2018-11-21T16:09:29.824Z,3.49
2018-11-21T16:12:01.224Z,3.48
2018-11-21T16:14:51.488Z,3.46
2018-11-21T16:17:41.772Z,3.44
2018-11-21T16:20:16.141Z,3.44
2018-11-21T16:23:06.566Z,3.44
2018-11-21T16:25:41.493Z,3.47
2018-11-21T16:28:12.475Z,3.46
2018-11-21T16:31:02.515Z,3.47
2018-11-21T16:33:52.653Z,3.45
2018-11-21T16:36:27.258Z,3.52
2018-11-21T16:38:56.680Z,3.50
2018-11-21T16:41:47.816Z,3.49
2018-11-21T16:44:19.441Z,3.44
2018-11-21T16:47:11.454Z,3.40
2018-11-21T16:49:42.935Z,3.38
2018-11-21T16:52:33.304Z,3.38
2018-11-21T16:55:06.303Z,3.37
2018-11-21T16:57:56.306Z,3.35
2018-11-21T17:00:29.072Z,3.37
2018-11-21T17:03:00.623Z,3.35
2018-11-21T17:05:32.278Z,3.35
2018-11-21T17:08:03.777Z,3.33
2018-11-21T17:10:54.810Z,3.31
2018-11-21T17:13:51.972Z,3.31
2018-11-21T17:16:43.969Z,3.28
2018-11-21T17:19:16.090Z,3.27
2018-11-21T17:22:06.615Z,3.27
2018-11-21T17:27:54.592Z,3.28
2018-11-21T17:30:26.215Z,3.25
2018-11-21T17:32:57.880Z,3.26
2018-11-21T17:35:29.369Z,3.28
2018-11-21T17:38:03.363Z,3.29
2018-11-21T17:40:55.895Z,3.28
2018-11-21T17:43:37.916Z,3.25
2018-11-21T17:46:48.249Z,3.23
2018-11-21T17:49:38.261Z,3.23
2018-11-21T17:52:28.579Z,3.23
2018-11-21T17:55:00.071Z,3.24
2018-11-21T17:57:52.080Z,3.24
2018-11-21T18:00:26.768Z,3.20
2018-11-21T18:02:58.350Z,3.17
2018-11-21T18:05:48.809Z,3.22
2018-11-21T18:08:39.167Z,3.26
2018-11-21T18:11:30.440Z,3.27
2018-11-21T18:14:02.148Z,3.27
2018-11-21T18:19:24.741Z,3.27
2018-11-21T18:22:17.215Z,3.29
2018-11-21T18:24:48.798Z,3.30
2018-11-21T18:27:20.365Z,3.31
2018-11-21T18:30:29.566Z,3.30
2018-11-21T18:33:20.688Z,3.30
2018-11-21T18:39:04.300Z,3.28
2018-11-21T18:41:35.982Z,3.28
2018-11-21T18:44:19.407Z,3.25
2018-11-21T18:46:50.976Z,3.21
2018-11-21T18:49:22.378Z,3.22
2018-11-21T18:51:56.183Z,3.18
2018-11-21T18:54:27.731Z,3.20
2018-11-21T18:57:29.951Z,3.19
2018-11-21T19:00:22.944Z,3.19
2018-11-21T19:02:54.480Z,3.23
2018-11-21T19:05:25.999Z,3.19
2018-11-21T19:07:57.732Z,3.18
2018-11-21T19:10:29.351Z,3.19
2018-11-21T19:13:00.968Z,3.20
2018-11-21T19:15:32.492Z,3.19
2018-11-21T19:18:03.975Z,3.17
2018-11-21T19:20:35.515Z,3.21
2018-11-21T19:23:07.058Z,3.20
2018-11-21T19:25:57.373Z,3.17
2018-11-21T19:28:28.957Z,3.17
2018-11-21T19:31:00.599Z,3.18
2018-11-21T19:33:32.163Z,3.18
2018-11-21T19:36:03.552Z,3.17
2018-11-21T19:38:35.181Z,3.15
2018-11-21T19:41:06.727Z,3.17
2018-11-21T19:43:38.209Z,3.17
2018-11-21T19:46:09.652Z,3.17
2018-11-21T19:48:41.214Z,3.18
2018-11-21T19:51:13.478Z,3.10
2018-11-21T19:54:03.482Z,3.12
2018-11-21T19:56:35.037Z,3.08
2018-11-21T19:59:06.606Z,3.05
2018-11-21T20:01:38.126Z,3.05
2018-11-21T20:04:29.370Z,3.04
2018-11-21T20:07:00.978Z,3.03
2018-11-21T20:09:53.302Z,3.01
2018-11-21T20:12:46.018Z,2.97
2018-11-21T20:15:36.218Z,2.95
2018-11-21T20:18:26.860Z,2.95
2018-11-21T20:24:14.281Z,3.00
2018-11-21T20:26:45.763Z,3.00
2018-11-21T20:29:17.249Z,3.03
2018-11-21T20:31:48.783Z,3.03
2018-11-21T20:34:39.091Z,3.00
2018-11-21T20:37:11.519Z,2.98
2018-11-21T20:39:46.961Z,2.93
2018-11-21T20:42:14.398Z,2.95
2018-11-21T20:44:46.795Z,2.92
2018-11-21T20:47:18.194Z,2.92
2018-11-21T20:49:49.893Z,2.90
2018-11-21T20:52:21.370Z,2.89
2018-11-21T20:54:52.759Z,2.90
2018-11-21T20:57:24.261Z,2.91
2018-11-21T21:00:14.339Z,2.94
2018-11-21T21:02:45.871Z,2.91
2018-11-21T21:09:11.558Z,2.91
2018-11-21T21:11:43.111Z,2.91
2018-11-21T21:14:14.649Z,2.91
2018-11-21T21:16:46.216Z,2.89
2018-11-21T21:19:36.231Z,2.89
2018-11-21T21:22:26.663Z,2.91
2018-11-21T21:24:58.116Z,2.85
2018-11-21T21:27:29.511Z,2.83
2018-11-21T21:30:19.607Z,2.84
2018-11-21T21:32:51.031Z,2.80
2018-11-21T21:35:23.433Z,2.80
2018-11-21T21:37:54.958Z,2.81
2018-11-21T21:40:26.479Z,2.81
2018-11-21T21:42:58.053Z,2.82
2018-11-21T21:45:30.607Z,2.84
2018-11-21T21:48:02.114Z,2.83
2018-11-21T21:50:52.144Z,2.83
2018-11-21T21:53:23.643Z,2.82
2018-11-21T21:55:55.143Z,2.79
2018-11-21T21:58:26.753Z,2.75
2018-11-21T22:00:58.269Z,2.75
2018-11-21T22:03:29.614Z,2.75
2018-11-21T22:06:19.941Z,2.77
2018-11-21T22:08:51.576Z,2.77
2018-11-21T22:11:23.091Z,2.77
2018-11-21T22:13:54.552Z,2.77
2018-11-21T22:16:25.947Z,2.74
2018-11-21T22:18:57.305Z,2.74
2018-11-21T22:21:28.928Z,2.75
2018-11-21T22:24:00.644Z,2.73
